Sunday, January 21, 2018, 3:36 PM EST
Back to Local

KMGJ, Montgomery Orange Co Airport

Location: Montgomery, NY, United States Lat: 41.517
Local Time: 3:36 PM EST (20:36 GMT) Lon: -74.267
Time Zone: US/Eastern Elev: 354 ft

Show me the last for .
Show Decoded

2018-01-21 14:54 METAR KMGJ 211954Z AUTO 16003KT 10SM CLR 08/M01 A3010 RMK AO2 SLP196 T00781006 =
2018-01-21 13:54 METAR KMGJ 211854Z AUTO 08003KT 10SM CLR 08/M01 A3011 RMK AO2 SLP199 T00781011 =
2018-01-21 12:54 METAR KMGJ 211754Z AUTO 00000KT 10SM CLR 07/M02 A3012 RMK AO2 SLP204 T00721017
                 10078 21022 58012 =
2018-01-21 11:54 METAR KMGJ 211654Z AUTO 12003KT 10SM CLR 06/M02 A3014 RMK AO2 SLP209 T00611022 =
2018-01-21 10:54 METAR KMGJ 211554Z AUTO 06004KT 10SM CLR 04/M02 A3017 RMK AO2 SLP219 T00441017 =
2018-01-21 09:54 METAR KMGJ 211454Z AUTO 14005KT 10SM CLR 02/M02 A3016 RMK AO2 SLP217 T00221022
                 51019 =
2018-01-21 08:54 METAR KMGJ 211354Z AUTO 00000KT 10SM CLR 00/M04 A3014 RMK AO2 SLP211 T00001039 =
2018-01-21 07:54 METAR KMGJ 211254Z AUTO VRB03KT 10SM CLR M01/M04 A3012 RMK AO2 SLP204 T10061039
                 =
2018-01-21 06:54 METAR KMGJ 211154Z AUTO 24007KT 10SM CLR M01/M04 A3010 RMK AO2 SLP197 T10061044
                 10017 21050 53017 =
2018-01-21 05:54 METAR KMGJ 211054Z AUTO 25007KT 10SM CLR 01/M03 A3008 RMK AO2 SLP189 T00111033 =
2018-01-21 04:54 METAR KMGJ 210954Z AUTO 25008KT 10SM CLR M03/M05 A3006 RMK AO2 SLP182 T10281050
                 =
2018-01-21 03:54 METAR KMGJ 210854Z AUTO 25006KT 10SM CLR M03/M05 A3005 RMK AO2 SLP180 T10281050
                 51011 =
2018-01-21 02:54 METAR KMGJ 210754Z AUTO 21004KT 10SM CLR M03/M06 A3005 RMK AO2 SLP178 T10331056
                 =
2018-01-21 01:54 METAR KMGJ 210654Z AUTO 17003KT 10SM CLR M04/M06 A3003 RMK AO2 SLP174 T10391061
                 =
2018-01-21 00:54 METAR KMGJ 210554Z AUTO 00000KT 10SM CLR M04/M07 A3002 RMK AO2 SLP169 T10391067
                 10050 21044 53006 =
2018-01-20 23:54 METAR KMGJ 210454Z AUTO 24004KT 10SM CLR M03/M06 A3001 RMK AO2 SLP165 T10281056
                 400831072 =
2018-01-20 22:54 METAR KMGJ 210354Z AUTO 24005KT 10SM CLR M03/M05 A3000 RMK AO2 SLP164 T10331050
                 =
2018-01-20 21:54 METAR KMGJ 210254Z AUTO 23005KT 10SM CLR M01/M04 A3000 RMK AO2 SLP162 T10111039
                 51015 =
2018-01-20 20:54 METAR KMGJ 210154Z AUTO 25004KT 10SM CLR M01/M04 A2999 RMK AO2 SLP158 T10111039
                 =
2018-01-20 19:54 METAR KMGJ 210054Z AUTO 19005KT 10SM CLR 04/M03 A2998 RMK AO2 SLP155 T00391033 =
2018-01-20 18:54 METAR KMGJ 202354Z AUTO 21003KT 10SM CLR 04/M03 A2996 RMK AO2 SLP147 T00441033
                 10083 20039 53035 =
2018-01-20 17:54 METAR KMGJ 202254Z AUTO 21007KT 10SM CLR 05/M03 A2992 RMK AO2 SLP135 T00501033 =
2018-01-20 16:54 METAR KMGJ 202154Z AUTO 23007KT 10SM CLR 06/M03 A2988 RMK AO2 SLP123 T00561028 =
2018-01-20 15:54 METAR KMGJ 202054Z AUTO 25011KT 10SM CLR 07/M03 A2985 RMK AO2 SLP112 T00671033
                 53014 =

Support USWX by starting your Amazon purchase here.